createdAt,value
2022-08-14T00:00:20.522Z,14.05
2022-08-14T00:03:42.231Z,8.63
2022-08-14T00:07:06.131Z,11.70
2022-08-14T00:10:50.310Z,8.00
2022-08-14T00:14:10.395Z,9.60
2022-08-14T00:17:47.269Z,9.02
2022-08-14T00:21:10.848Z,7.75
2022-08-14T00:24:33.654Z,7.68
2022-08-14T00:27:56.835Z,7.55
2022-08-14T00:31:19.530Z,8.95
2022-08-14T00:34:47.077Z,9.65
2022-08-14T00:38:09.907Z,8.35
2022-08-14T00:41:34.795Z,7.15
2022-08-14T00:44:56.923Z,6.80
2022-08-14T00:48:34.458Z,11.27
2022-08-14T00:51:59.963Z,8.95
2022-08-14T00:55:22.000Z,7.55
2022-08-14T00:58:48.549Z,6.28
2022-08-14T01:02:12.403Z,7.97
2022-08-14T01:05:51.195Z,7.00
2022-08-14T01:09:14.228Z,7.32
2022-08-14T01:12:40.517Z,7.25
2022-08-14T01:16:08.716Z,7.65
2022-08-14T01:19:54.033Z,8.32
2022-08-14T01:23:18.834Z,9.02
2022-08-14T01:26:41.953Z,9.00
2022-08-14T01:30:09.586Z,8.85
2022-08-14T01:33:44.704Z,7.95
2022-08-14T01:37:16.533Z,10.82
2022-08-14T01:40:42.011Z,13.60
2022-08-14T01:44:07.604Z,8.95
2022-08-14T01:47:49.260Z,8.50
2022-08-14T01:51:23.060Z,8.35
2022-08-14T01:54:47.230Z,10.18
2022-08-14T01:58:28.796Z,12.77
2022-08-14T02:01:59.106Z,8.73
2022-08-14T02:05:35.686Z,9.80
2022-08-14T02:09:02.603Z,7.93
2022-08-14T02:12:29.178Z,8.60
2022-08-14T02:15:51.438Z,10.07
2022-08-14T02:19:15.497Z,7.63
2022-08-14T02:22:47.768Z,9.38
2022-08-14T02:26:29.288Z,12.88
2022-08-14T02:29:59.149Z,10.93
2022-08-14T02:33:29.439Z,7.90
2022-08-14T02:37:04.555Z,8.95
2022-08-14T02:40:33.795Z,8.45
2022-08-14T02:44:00.994Z,8.90
2022-08-14T02:47:26.676Z,8.88
2022-08-14T02:50:51.455Z,11.52
2022-08-14T02:54:19.632Z,7.60
2022-08-14T02:57:47.144Z,9.70
2022-08-14T03:01:23.990Z,9.13
2022-08-14T03:04:50.197Z,7.82
2022-08-14T03:08:15.390Z,8.05
2022-08-14T03:11:44.765Z,7.63
2022-08-14T03:15:13.994Z,10.10
2022-08-14T03:18:48.514Z,9.82
2022-08-14T03:22:17.592Z,11.52
2022-08-14T03:25:44.627Z,8.73
2022-08-14T03:29:07.484Z,10.07
2022-08-14T03:32:35.566Z,9.88
2022-08-14T03:36:05.513Z,11.30
2022-08-14T03:39:43.271Z,11.05
2022-08-14T03:43:08.848Z,10.52
2022-08-14T03:46:53.017Z,11.00
2022-08-14T03:50:21.550Z,11.40
2022-08-14T03:53:49.695Z,7.90
2022-08-14T03:57:11.308Z,13.55
2022-08-14T04:00:43.154Z,9.38
2022-08-14T04:04:07.916Z,9.98
2022-08-14T04:07:32.834Z,8.73
2022-08-14T04:11:01.006Z,7.72
2022-08-14T04:14:23.850Z,7.60
2022-08-14T04:17:50.207Z,9.07
2022-08-14T04:21:16.546Z,9.25
2022-08-14T04:24:40.941Z,8.00
2022-08-14T04:28:07.033Z,7.60
2022-08-14T04:32:59.000Z,7.10
2022-08-14T04:35:55.328Z,10.43
2022-08-14T04:39:35.624Z,8.02
2022-08-14T04:43:38.839Z,9.18
2022-08-14T04:47:19.724Z,7.18
2022-08-14T04:50:54.310Z,8.80
2022-08-14T04:54:16.640Z,11.55
2022-08-14T04:57:42.664Z,10.45
2022-08-14T05:01:13.052Z,9.67
2022-08-14T05:04:45.275Z,9.80
2022-08-14T05:08:32.099Z,11.70
2022-08-14T05:11:55.787Z,9.10
2022-08-14T05:15:29.475Z,9.38
2022-08-14T05:19:24.664Z,11.25
2022-08-14T05:22:35.470Z,6.55
2022-08-14T05:26:13.286Z,7.75
2022-08-14T05:29:35.280Z,7.38
2022-08-14T05:32:59.804Z,7.53
2022-08-14T05:36:23.890Z,7.00
2022-08-14T05:39:46.982Z,6.30
2022-08-14T05:43:10.900Z,6.35
2022-08-14T05:46:34.448Z,7.00
2022-08-14T05:50:04.008Z,7.80
2022-08-14T05:53:27.513Z,5.57
2022-08-14T05:56:57.007Z,9.27
2022-08-14T06:00:29.089Z,6.53
2022-08-14T06:03:54.468Z,5.80
2022-08-14T06:07:16.417Z,7.32
2022-08-14T06:10:44.508Z,5.95
2022-08-14T06:14:20.867Z,10.20
2022-08-14T06:17:47.880Z,5.30
2022-08-14T06:21:24.768Z,6.78
2022-08-14T06:24:47.979Z,5.45
2022-08-14T06:28:28.083Z,6.97
2022-08-14T06:31:54.848Z,6.97
2022-08-14T06:35:24.745Z,8.63
2022-08-14T06:38:50.467Z,5.35
2022-08-14T06:42:18.363Z,5.55
2022-08-14T06:45:57.111Z,9.32
2022-08-14T06:49:18.964Z,8.00
2022-08-14T06:52:41.306Z,10.98
2022-08-14T06:56:13.669Z,6.18
2022-08-14T06:59:36.676Z,10.40
2022-08-14T07:03:17.930Z,8.73
2022-08-14T07:06:45.450Z,5.93
2022-08-14T07:10:17.007Z,5.72
2022-08-14T07:13:39.204Z,5.75
2022-08-14T07:17:01.467Z,6.32
2022-08-14T07:20:30.735Z,10.13
2022-08-14T07:23:53.096Z,6.65
2022-08-14T07:27:14.970Z,7.57
2022-08-14T07:30:41.981Z,5.70
2022-08-14T07:34:12.873Z,5.60
2022-08-14T07:37:54.395Z,11.20
2022-08-14T07:41:16.728Z,5.65
2022-08-14T07:44:46.257Z,6.32
2022-08-14T07:48:14.836Z,8.05
2022-08-14T07:51:38.269Z,7.85
2022-08-14T07:55:01.089Z,5.85
2022-08-14T07:58:33.883Z,7.00
2022-08-14T08:02:02.580Z,7.18
2022-08-14T08:05:27.928Z,6.32
2022-08-14T08:09:01.495Z,6.32
2022-08-14T08:12:30.858Z,5.57
2022-08-14T08:15:59.268Z,6.18
2022-08-14T08:19:20.905Z,6.25
2022-08-14T08:22:48.287Z,6.03
2022-08-14T08:26:11.636Z,7.82
2022-08-14T08:29:33.451Z,6.80
2022-08-14T08:33:01.200Z,5.78
2022-08-14T08:36:24.649Z,6.53
2022-08-14T08:40:02.595Z,6.40
2022-08-14T08:43:26.717Z,9.35
2022-08-14T08:46:57.775Z,6.88
2022-08-14T08:54:04.486Z,5.97
2022-08-14T08:57:28.782Z,9.70
2022-08-14T09:00:54.228Z,5.93
2022-08-14T09:04:17.336Z,6.13
2022-08-14T09:07:41.412Z,10.93
2022-08-14T09:11:18.820Z,8.20
2022-08-14T09:14:44.670Z,5.97
2022-08-14T09:18:07.402Z,5.32
2022-08-14T09:21:31.979Z,6.22
2022-08-14T09:24:54.607Z,5.75
2022-08-14T09:28:21.096Z,5.43
2022-08-14T09:31:53.307Z,5.53
2022-08-14T09:35:23.646Z,6.35
2022-08-14T09:39:23.788Z,6.55
2022-08-14T09:43:02.737Z,14.95
2022-08-14T09:46:27.899Z,7.47
2022-08-14T09:49:53.314Z,5.40
2022-08-14T09:54:17.693Z,6.10
2022-08-14T09:57:30.234Z,6.43
2022-08-14T10:01:01.866Z,6.22
2022-08-14T10:04:34.573Z,7.38
2022-08-14T10:07:58.928Z,6.80
2022-08-14T10:11:24.810Z,7.90
2022-08-14T10:14:57.121Z,6.57
2022-08-14T10:18:27.759Z,6.03
2022-08-14T10:23:15.599Z,8.13
2022-08-14T10:25:59.080Z,5.20
2022-08-14T10:29:37.156Z,6.68
2022-08-14T10:32:59.000Z,6.82
2022-08-14T10:36:37.019Z,5.95
2022-08-14T10:40:05.778Z,4.93
2022-08-14T10:43:33.774Z,4.97
2022-08-14T10:47:40.422Z,5.80
2022-08-14T10:50:51.604Z,4.83
2022-08-14T10:54:34.978Z,7.30
2022-08-14T10:58:03.489Z,6.00
2022-08-14T11:01:32.551Z,6.28
2022-08-14T11:05:18.367Z,4.80
2022-08-14T11:08:40.609Z,7.28
2022-08-14T11:12:39.926Z,4.90
2022-08-14T11:15:48.850Z,6.47
2022-08-14T11:19:13.117Z,5.07
2022-08-14T11:22:52.813Z,4.47
2022-08-14T11:26:22.738Z,6.05
2022-08-14T11:30:00.619Z,5.65
2022-08-14T11:33:37.807Z,6.80
2022-08-14T11:37:18.739Z,6.95
2022-08-14T11:44:17.794Z,8.68
2022-08-14T11:48:10.723Z,4.95
2022-08-14T11:51:52.942Z,4.55
2022-08-14T11:55:17.013Z,5.55
2022-08-14T11:58:39.518Z,4.43
2022-08-14T12:03:01.274Z,7.60
2022-08-14T12:06:27.905Z,5.45
2022-08-14T12:09:56.340Z,4.93
2022-08-14T12:13:20.791Z,4.40
2022-08-14T12:16:57.614Z,4.37
2022-08-14T12:20:32.562Z,4.80
2022-08-14T12:24:09.216Z,3.80
2022-08-14T12:28:01.376Z,5.40
2022-08-14T12:31:23.404Z,3.85
2022-08-14T12:34:54.097Z,5.15
2022-08-14T12:38:21.061Z,4.35
2022-08-14T12:41:53.841Z,3.42
2022-08-14T12:45:30.738Z,3.95
2022-08-14T12:48:52.793Z,3.90
2022-08-14T12:52:17.181Z,4.45
2022-08-14T12:56:17.747Z,4.85
2022-08-14T12:59:33.232Z,3.90
2022-08-14T13:02:59.248Z,5.45
2022-08-14T13:06:24.524Z,5.03
2022-08-14T13:09:46.454Z,4.78
2022-08-14T13:13:15.165Z,5.78
2022-08-14T13:16:38.821Z,6.03
2022-08-14T13:20:02.637Z,4.70
2022-08-14T13:23:37.320Z,5.75
2022-08-14T13:27:04.836Z,4.90
2022-08-14T13:30:27.507Z,4.22
2022-08-14T13:33:54.497Z,4.07
2022-08-14T13:37:18.977Z,3.90
2022-08-14T13:40:43.529Z,4.45
2022-08-14T13:44:13.918Z,6.07
2022-08-14T13:47:42.375Z,5.22
2022-08-14T13:51:13.062Z,4.65
2022-08-14T13:54:37.459Z,5.75
2022-08-14T13:58:06.287Z,4.03
2022-08-14T14:01:43.053Z,4.70
2022-08-14T14:05:06.912Z,7.03
2022-08-14T14:08:46.995Z,4.20
2022-08-14T14:12:37.793Z,5.28
2022-08-14T14:15:59.735Z,4.78
2022-08-14T14:19:25.641Z,6.15
2022-08-14T14:23:01.495Z,4.30
2022-08-14T14:26:24.989Z,4.55
2022-08-14T14:29:55.671Z,5.85
2022-08-14T14:33:45.149Z,4.60
2022-08-14T14:37:06.499Z,4.68
2022-08-14T14:40:53.623Z,5.28
2022-08-14T14:44:22.751Z,4.82
2022-08-14T14:47:59.377Z,4.50
2022-08-14T14:51:22.297Z,5.00
2022-08-14T14:54:46.462Z,4.95
2022-08-14T14:58:09.225Z,5.25
2022-08-14T15:01:36.515Z,5.57
2022-08-14T15:05:01.386Z,5.55
2022-08-14T15:08:26.806Z,5.10
2022-08-14T15:12:28.029Z,4.88
2022-08-14T15:15:49.377Z,5.82
2022-08-14T15:19:16.808Z,4.53
2022-08-14T15:22:39.603Z,4.40
2022-08-14T15:26:05.744Z,5.47
2022-08-14T15:29:32.368Z,5.32
2022-08-14T15:33:03.621Z,11.25
2022-08-14T15:36:29.383Z,4.95
2022-08-14T15:39:54.056Z,5.28
2022-08-14T15:43:18.054Z,5.95
2022-08-14T15:46:43.041Z,5.45
2022-08-14T15:50:12.778Z,4.78
2022-08-14T15:53:35.030Z,6.95
2022-08-14T15:57:01.660Z,5.30
2022-08-14T16:00:49.345Z,4.78
2022-08-14T16:04:17.286Z,4.78
2022-08-14T16:07:39.197Z,10.35
2022-08-14T16:11:04.463Z,5.20
2022-08-14T16:14:27.889Z,4.97
2022-08-14T16:17:50.278Z,4.70
2022-08-14T16:21:14.794Z,6.25
2022-08-14T16:24:59.741Z,8.85
2022-08-14T16:28:27.429Z,5.13
2022-08-14T16:31:51.156Z,9.90
2022-08-14T16:35:14.929Z,4.65
2022-08-14T16:38:46.209Z,6.47
2022-08-14T16:42:38.729Z,9.45
2022-08-14T16:45:58.039Z,7.90
2022-08-14T16:49:22.944Z,6.80
2022-08-14T16:52:54.727Z,6.03
2022-08-14T16:56:25.503Z,5.82
2022-08-14T16:59:57.108Z,6.22
2022-08-14T17:03:22.465Z,5.68
2022-08-14T17:06:50.453Z,6.82
2022-08-14T17:10:12.527Z,9.93
2022-08-14T17:13:58.794Z,7.28
2022-08-14T17:17:20.023Z,14.80
2022-08-14T17:21:01.921Z,9.45
2022-08-14T17:24:56.584Z,13.05
2022-08-14T17:28:52.462Z,10.70
2022-08-14T17:32:02.112Z,11.57
2022-08-14T17:35:57.488Z,10.30
2022-08-14T17:39:13.649Z,12.57
2022-08-14T17:42:51.200Z,13.15
2022-08-14T17:46:35.404Z,12.75
2022-08-14T17:49:58.932Z,13.75
2022-08-14T17:53:22.779Z,9.63
2022-08-14T17:56:46.913Z,9.80
2022-08-14T18:00:14.738Z,9.45
2022-08-14T18:03:49.779Z,9.15
2022-08-14T18:07:59.671Z,16.38
2022-08-14T18:11:06.065Z,9.80
2022-08-14T18:14:48.815Z,6.90
2022-08-14T18:18:14.393Z,5.97
2022-08-14T18:21:57.305Z,8.40
2022-08-14T18:25:22.733Z,6.65
2022-08-14T18:28:51.567Z,7.18
2022-08-14T18:32:47.591Z,5.82
2022-08-14T18:36:46.355Z,5.53
2022-08-14T18:40:17.721Z,5.40
2022-08-14T18:43:58.885Z,24.50
2022-08-14T18:47:26.541Z,13.15
2022-08-14T18:50:52.390Z,11.82
2022-08-14T18:54:32.754Z,5.97
2022-08-14T18:57:58.068Z,8.02
2022-08-14T19:01:33.275Z,9.02
2022-08-14T19:05:02.408Z,8.13
2022-08-14T19:08:27.510Z,7.55
2022-08-14T19:11:51.657Z,8.48
2022-08-14T19:15:20.989Z,9.05
2022-08-14T19:18:50.365Z,7.75
2022-08-14T19:22:20.469Z,14.55
2022-08-14T19:25:57.547Z,12.60
2022-08-14T19:29:25.731Z,8.73
2022-08-14T19:32:50.705Z,8.48
2022-08-14T19:36:28.843Z,8.45
2022-08-14T19:39:57.223Z,9.23
2022-08-14T19:43:56.102Z,17.27
2022-08-14T19:47:12.372Z,10.13
2022-08-14T19:50:40.759Z,9.80
2022-08-14T19:54:13.495Z,8.82
2022-08-14T19:57:35.828Z,8.57
2022-08-14T20:00:59.165Z,12.35
2022-08-14T20:04:47.969Z,9.98
2022-08-14T20:10:58.350Z,8.20
2022-08-14T20:12:01.885Z,11.85
2022-08-14T20:15:46.645Z,11.68
2022-08-14T20:19:16.147Z,12.75
2022-08-14T20:22:39.391Z,11.45
2022-08-14T20:26:00.961Z,16.88
2022-08-14T20:29:31.705Z,16.25
2022-08-14T20:33:08.022Z,12.48
2022-08-14T20:36:41.366Z,13.77
2022-08-14T20:40:23.995Z,11.15
2022-08-14T20:44:08.575Z,13.77
2022-08-14T20:47:50.826Z,9.80
2022-08-14T20:51:36.291Z,10.43
2022-08-14T20:55:01.754Z,12.77
2022-08-14T20:58:47.989Z,13.80
2022-08-14T21:02:49.960Z,11.50
2022-08-14T21:07:23.337Z,11.93
2022-08-14T21:10:33.933Z,11.05
2022-08-14T21:14:26.473Z,10.10
2022-08-14T21:17:45.909Z,14.02
2022-08-14T21:21:10.523Z,19.40
2022-08-14T21:24:39.679Z,15.77
2022-08-14T21:28:29.568Z,13.73
2022-08-14T21:31:55.819Z,13.88
2022-08-14T21:35:22.875Z,13.63
2022-08-14T21:38:45.611Z,20.20
2022-08-14T21:42:10.986Z,18.58
2022-08-14T21:45:35.585Z,15.20
2022-08-14T21:48:59.851Z,12.57
2022-08-14T21:52:50.239Z,14.98
2022-08-14T21:56:16.497Z,11.55
2022-08-14T21:59:47.203Z,13.02
2022-08-14T22:03:17.131Z,9.93
2022-08-14T22:06:41.547Z,13.48
2022-08-14T22:10:14.751Z,10.02
2022-08-14T22:13:46.610Z,10.48
2022-08-14T22:17:12.687Z,15.25
2022-08-14T22:20:36.342Z,7.80
2022-08-14T22:23:58.541Z,15.00
2022-08-14T22:27:22.005Z,10.23
2022-08-14T22:30:45.422Z,12.90
2022-08-14T22:34:15.028Z,11.48
2022-08-14T22:37:39.689Z,9.93
2022-08-14T22:41:27.726Z,11.30
2022-08-14T22:44:56.831Z,11.02
2022-08-14T22:48:23.297Z,9.25
2022-08-14T22:51:48.379Z,9.85
2022-08-14T22:55:14.100Z,11.50
2022-08-14T22:58:40.264Z,8.50
2022-08-14T23:02:12.702Z,10.83
2022-08-14T23:05:40.062Z,12.52
2022-08-14T23:09:34.967Z,11.52
2022-08-14T23:13:01.527Z,12.15
2022-08-14T23:16:24.132Z,11.95
2022-08-14T23:19:49.564Z,8.52
2022-08-14T23:23:23.053Z,9.80
2022-08-14T23:26:53.637Z,9.63
2022-08-14T23:30:34.012Z,12.05
2022-08-14T23:33:57.766Z,8.27
2022-08-14T23:37:26.748Z,10.48
2022-08-14T23:40:48.878Z,11.45
2022-08-14T23:44:13.808Z,9.23
2022-08-14T23:47:51.673Z,7.70
2022-08-14T23:51:18.028Z,10.07
2022-08-14T23:54:50.183Z,15.85
2022-08-14T23:58:29.324Z,12.07
